createdAt,value
2018-05-03T00:01:45.417Z,100666.73
2018-05-03T00:04:11.378Z,100661.98
2018-05-03T00:06:37.376Z,100660.91
2018-05-03T00:09:03.410Z,100665.69
2018-05-03T00:11:29.384Z,100669.89
2018-05-03T00:13:55.400Z,100665.50
2018-05-03T00:16:21.367Z,100661.65
2018-05-03T00:18:47.424Z,100662.20
2018-05-03T00:21:13.399Z,100661.07
2018-05-03T00:23:39.350Z,100665.61
2018-05-03T00:26:05.367Z,100667.89
2018-05-03T00:28:31.324Z,100677.27
2018-05-03T00:30:57.293Z,100675.56
2018-05-03T00:33:23.282Z,100683.64
2018-05-03T00:35:49.356Z,100682.76
2018-05-03T00:38:15.322Z,100686.00
2018-05-03T00:40:41.305Z,100684.55
2018-05-03T00:43:07.259Z,100684.77
2018-05-03T00:45:33.218Z,100686.03
2018-05-03T00:47:59.178Z,100685.13
2018-05-03T00:50:25.161Z,100687.29
2018-05-03T00:52:51.126Z,100681.25
2018-05-03T00:55:17.095Z,100684.23
2018-05-03T00:57:43.093Z,100684.43
2018-05-03T01:00:09.081Z,100692.41
2018-05-03T01:02:35.051Z,100694.05
2018-05-03T01:05:01.053Z,100692.95
2018-05-03T01:07:27.018Z,100692.02
2018-05-03T01:09:53.001Z,100687.70
2018-05-03T01:12:19.008Z,100696.36
2018-05-03T01:14:44.974Z,100692.30
2018-05-03T01:17:10.930Z,100691.20
2018-05-03T01:19:36.991Z,100694.55
2018-05-03T01:22:02.959Z,100698.51
2018-05-03T01:24:28.949Z,100700.27
2018-05-03T01:26:54.922Z,100699.80
2018-05-03T01:29:20.873Z,100700.89
2018-05-03T01:31:46.834Z,100702.44
2018-05-03T01:34:12.805Z,100703.50
2018-05-03T01:36:38.773Z,100702.23
2018-05-03T01:39:04.776Z,100700.23
2018-05-03T01:41:30.784Z,100709.69
2018-05-03T01:43:56.743Z,100706.83
2018-05-03T01:46:22.729Z,100712.22
2018-05-03T01:48:48.682Z,100711.23
2018-05-03T01:51:14.685Z,100724.64
2018-05-03T01:53:40.653Z,100727.53
2018-05-03T01:56:06.619Z,100725.00
2018-05-03T01:58:32.596Z,100732.34
2018-05-03T02:01:01.955Z,100739.23
2018-05-03T02:03:27.929Z,100736.94
2018-05-03T02:05:53.934Z,100746.38
2018-05-03T02:08:19.926Z,100749.85
2018-05-03T02:10:45.914Z,100747.77
2018-05-03T02:13:11.866Z,100758.67
2018-05-03T02:15:37.836Z,100762.97
2018-05-03T02:18:03.817Z,100764.09
2018-05-03T02:20:29.777Z,100770.98
2018-05-03T02:22:55.831Z,100771.48
2018-05-03T02:25:21.757Z,100777.80
2018-05-03T02:27:47.718Z,100780.64
2018-05-03T02:30:13.713Z,100788.06
2018-05-03T02:32:39.713Z,100788.41
2018-05-03T02:35:05.699Z,100787.85
2018-05-03T02:37:31.770Z,100788.43
2018-05-03T02:39:57.766Z,100792.83
2018-05-03T02:42:23.724Z,100787.77
2018-05-03T02:44:49.716Z,100791.31
2018-05-03T02:47:15.697Z,100791.68
2018-05-03T02:49:41.689Z,100790.28
2018-05-03T02:52:07.651Z,100796.86
2018-05-03T02:54:33.637Z,100802.27
2018-05-03T03:02:05.879Z,100804.98
2018-05-03T03:04:31.837Z,100808.02
2018-05-03T03:06:57.828Z,100817.85
2018-05-03T03:09:23.802Z,100823.97
2018-05-03T03:11:49.762Z,100825.07
2018-05-03T03:14:15.723Z,100822.35
2018-05-03T03:16:41.708Z,100825.48
2018-05-03T03:19:07.654Z,100822.73
2018-05-03T03:21:33.643Z,100824.66
2018-05-03T03:23:59.616Z,100827.33
2018-05-03T03:26:25.574Z,100832.15
2018-05-03T03:28:51.550Z,100838.34
2018-05-03T03:33:51.319Z,100849.92
2018-05-03T03:36:17.293Z,100856.38
2018-05-03T03:38:43.269Z,100859.78
2018-05-03T03:41:09.262Z,100853.39
2018-05-03T03:43:35.261Z,100848.23
2018-05-03T03:46:02.091Z,100847.73
2018-05-03T03:48:28.092Z,100857.63
2018-05-03T03:50:54.058Z,100860.19
2018-05-03T03:53:20.072Z,100864.36
2018-05-03T03:55:46.059Z,100852.16
2018-05-03T03:58:12.068Z,100843.89
2018-05-03T04:00:38.065Z,100856.33
2018-05-03T04:03:04.030Z,100853.33
2018-05-03T04:05:30.034Z,100857.49
2018-05-03T04:07:56.744Z,100861.30
2018-05-03T04:10:22.717Z,100865.39
2018-05-03T04:12:48.701Z,100864.24
2018-05-03T04:17:46.045Z,100871.37
2018-05-03T04:20:12.035Z,100876.23
2018-05-03T04:22:38.005Z,100871.32
2018-05-03T04:25:03.984Z,100878.13
2018-05-03T04:27:29.951Z,100888.11
2018-05-03T04:29:55.981Z,100894.58
2018-05-03T04:32:21.959Z,100891.99
2018-05-03T04:34:47.913Z,100894.37
2018-05-03T04:37:13.895Z,100903.20
2018-05-03T04:39:39.875Z,100908.73
2018-05-03T04:42:05.901Z,100916.11
2018-05-03T04:44:31.961Z,100925.55
2018-05-03T04:46:57.995Z,100928.73
2018-05-03T04:49:23.936Z,100938.33
2018-05-03T04:51:50.929Z,100940.14
2018-05-03T04:54:16.990Z,100947.28
2018-05-03T04:56:42.877Z,100955.06
2018-05-03T04:59:08.842Z,100957.75
2018-05-03T05:01:34.766Z,100956.52
2018-05-03T05:04:00.758Z,100958.66
2018-05-03T05:06:26.735Z,100960.89
2018-05-03T05:08:52.749Z,100972.67
2018-05-03T05:11:18.715Z,100980.18
2018-05-03T05:13:44.697Z,100982.61
2018-05-03T05:16:10.707Z,100985.05
2018-05-03T05:18:36.702Z,100995.55
2018-05-03T05:21:02.725Z,100997.13
2018-05-03T05:23:28.690Z,101001.86
2018-05-03T05:25:54.650Z,101000.13
2018-05-03T05:28:20.640Z,100995.11
2018-05-03T05:30:46.696Z,101007.42
2018-05-03T05:33:12.593Z,101010.06
2018-05-03T05:35:38.566Z,101009.70
2018-05-03T05:38:04.543Z,101023.67
2018-05-03T05:40:30.519Z,101024.00
2018-05-03T05:42:56.484Z,101023.72
2018-05-03T05:45:22.440Z,101024.37
2018-05-03T05:47:48.440Z,101033.81
2018-05-03T05:52:45.524Z,101041.73
2018-05-03T05:55:11.477Z,101035.59
2018-05-03T05:57:37.542Z,101046.44
2018-05-03T06:00:03.503Z,101052.54
2018-05-03T06:02:29.469Z,101049.98
2018-05-03T06:04:55.428Z,101053.11
2018-05-03T06:14:56.598Z,101057.48
2018-05-03T06:17:22.605Z,101059.75
2018-05-03T06:19:48.553Z,101064.20
2018-05-03T06:22:14.517Z,101068.59
2018-05-03T06:24:40.506Z,101065.25
2018-05-03T06:27:06.479Z,101063.11
2018-05-03T06:29:32.440Z,101070.07
2018-05-03T06:31:58.445Z,101069.45
2018-05-03T06:34:24.554Z,101071.59
2018-05-03T06:36:50.543Z,101074.15
2018-05-03T06:39:17.575Z,101070.27
2018-05-03T06:41:43.632Z,101070.60
2018-05-03T06:44:09.878Z,101081.94
2018-05-03T06:46:35.915Z,101078.60
2018-05-03T06:49:01.893Z,101082.84
2018-05-03T06:51:28.049Z,101084.30
2018-05-03T06:53:53.960Z,101086.94
2018-05-03T06:56:19.980Z,101084.70
2018-05-03T06:58:45.992Z,101090.55
2018-05-03T07:01:11.980Z,101086.52
2018-05-03T07:03:37.978Z,101096.25
2018-05-03T07:06:03.988Z,101097.56
2018-05-03T07:08:29.986Z,101097.28
2018-05-03T07:10:56.203Z,101107.02
2018-05-03T07:13:22.174Z,101106.81
2018-05-03T07:15:48.157Z,101114.77
2018-05-03T07:18:14.169Z,101107.27
2018-05-03T07:20:40.171Z,101115.88
2018-05-03T07:23:06.166Z,101120.12
2018-05-03T07:25:32.222Z,101125.28
2018-05-03T07:27:58.204Z,101130.17
2018-05-03T07:30:24.208Z,101133.11
2018-05-03T07:32:50.261Z,101134.72
2018-05-03T07:35:16.276Z,101134.22
2018-05-03T07:37:42.478Z,101141.58
2018-05-03T07:40:08.477Z,101139.21
2018-05-03T07:42:34.455Z,101149.56
2018-05-03T07:45:00.457Z,101149.43
2018-05-03T07:47:32.492Z,101155.75
2018-05-03T07:49:58.685Z,101154.64
2018-05-03T07:52:24.693Z,101158.97
2018-05-03T07:54:50.905Z,101165.08
2018-05-03T07:57:16.900Z,101164.50
2018-05-03T07:59:42.887Z,101172.16
2018-05-03T08:02:08.969Z,101178.59
2018-05-03T08:04:34.901Z,101183.13
2018-05-03T08:07:00.871Z,101185.97
2018-05-03T08:09:26.885Z,101183.78
2018-05-03T08:11:52.912Z,101190.06
2018-05-03T08:14:18.951Z,101181.03
2018-05-03T08:16:44.939Z,101191.45
2018-05-03T08:19:10.955Z,101183.59
2018-05-03T08:21:40.593Z,101182.56
2018-05-03T08:24:06.572Z,101186.68
2018-05-03T08:26:32.560Z,101196.87
2018-05-03T08:28:58.554Z,101203.84
2018-05-03T08:31:24.769Z,101202.44
2018-05-03T08:33:50.821Z,101202.27
2018-05-03T08:36:16.777Z,101215.06
2018-05-03T08:38:42.763Z,101215.97
2018-05-03T08:41:08.750Z,101225.16
2018-05-03T08:43:34.709Z,101226.67
2018-05-03T08:46:00.702Z,101238.45
2018-05-03T08:48:26.732Z,101241.64
2018-05-03T08:50:52.711Z,101233.73
2018-05-03T08:53:18.700Z,101237.07
2018-05-03T08:55:44.781Z,101227.80
2018-05-03T08:58:10.691Z,101232.63
2018-05-03T09:00:37.321Z,101230.21
2018-05-03T09:03:03.334Z,101236.03
2018-05-03T09:05:29.348Z,101231.88
2018-05-03T09:07:55.559Z,101232.58
2018-05-03T09:10:21.524Z,101238.69
2018-05-03T09:12:47.541Z,101241.94
2018-05-03T09:15:13.543Z,101237.48
2018-05-03T09:17:39.565Z,101240.89
2018-05-03T09:20:05.553Z,101243.08
2018-05-03T09:22:31.577Z,101240.78
2018-05-03T09:24:57.606Z,101233.06
2018-05-03T09:27:23.620Z,101233.82
2018-05-03T09:29:49.803Z,101238.81
2018-05-03T09:32:15.804Z,101252.89
2018-05-03T09:34:41.801Z,101241.92
2018-05-03T09:37:07.791Z,101242.58
2018-05-03T09:39:33.803Z,101247.72
2018-05-03T09:44:31.732Z,101239.89
2018-05-03T09:46:57.712Z,101243.48
2018-05-03T09:49:23.697Z,101238.22
2018-05-03T09:51:49.667Z,101241.91
2018-05-03T09:54:15.637Z,101251.59
2018-05-03T09:56:41.609Z,101253.16
2018-05-03T09:59:07.575Z,101267.06
2018-05-03T10:01:33.521Z,101259.28
2018-05-03T10:03:59.472Z,101252.98
2018-05-03T10:06:25.501Z,101254.08
2018-05-03T10:08:51.468Z,101251.93
2018-05-03T10:11:17.480Z,101251.73
2018-05-03T10:13:43.436Z,101262.98
2018-05-03T10:16:09.406Z,101258.61
2018-05-03T10:18:35.452Z,101258.53
2018-05-03T10:21:01.360Z,101255.69
2018-05-03T10:23:27.325Z,101257.42
2018-05-03T10:25:53.296Z,101259.51
2018-05-03T10:28:19.257Z,101259.38
2018-05-03T10:30:45.217Z,101262.83
2018-05-03T10:33:11.257Z,101257.75
2018-05-03T10:35:37.319Z,101255.67
2018-05-03T10:45:37.339Z,101247.84
2018-05-03T10:48:03.294Z,101244.36
2018-05-03T10:50:29.269Z,101246.58
2018-05-03T10:52:55.232Z,101241.92
2018-05-03T10:55:21.207Z,101247.49
2018-05-03T10:57:47.161Z,101236.92
2018-05-03T11:00:13.119Z,101237.41
2018-05-03T11:02:39.101Z,101233.25
2018-05-03T11:05:05.056Z,101231.78
2018-05-03T11:07:31.044Z,101239.08
2018-05-03T11:09:57.043Z,101230.05
2018-05-03T11:12:23.018Z,101229.39
2018-05-03T11:14:48.976Z,101238.48
2018-05-03T11:17:14.957Z,101239.49
2018-05-03T11:19:40.909Z,101237.95
2018-05-03T11:22:06.938Z,101232.98
2018-05-03T11:24:32.988Z,101237.96
2018-05-03T11:26:58.986Z,101243.34
2018-05-03T11:29:24.995Z,101243.59
2018-05-03T11:31:50.971Z,101241.86
2018-05-03T11:34:16.943Z,101242.73
2018-05-03T11:36:42.958Z,101252.34
2018-05-03T11:39:08.931Z,101244.99
2018-05-03T11:41:34.924Z,101242.69
2018-05-03T11:44:00.952Z,101239.84
2018-05-03T11:46:27.147Z,101250.61
2018-05-03T11:48:53.196Z,101251.93
2018-05-03T11:51:21.365Z,101256.09
2018-05-03T11:53:47.368Z,101258.02
2018-05-03T11:56:13.373Z,101259.14
2018-05-03T11:58:39.333Z,101255.36
2018-05-03T12:01:05.316Z,101260.05
2018-05-03T12:03:31.288Z,101260.86
2018-05-03T12:05:57.381Z,101269.77
2018-05-03T12:08:24.099Z,101260.23
2018-05-03T12:10:50.074Z,101257.09
2018-05-03T12:13:16.057Z,101263.53
2018-05-03T12:15:42.028Z,101276.55
2018-05-03T12:18:08.006Z,101275.35
2018-05-03T12:28:09.829Z,101272.79
2018-05-03T12:30:35.819Z,101276.34
2018-05-03T12:33:01.803Z,101282.72
2018-05-03T12:35:27.793Z,101278.85
2018-05-03T12:37:53.822Z,101283.05
2018-05-03T12:40:19.783Z,101275.43
2018-05-03T12:42:45.747Z,101277.72
2018-05-03T12:45:11.733Z,101276.75
2018-05-03T12:52:40.555Z,101269.69
2018-05-03T12:55:06.541Z,101275.50
2018-05-03T12:57:32.505Z,101275.29
2018-05-03T12:59:58.503Z,101267.92
2018-05-03T13:02:24.612Z,101268.42
2018-05-03T13:04:50.635Z,101262.15
2018-05-03T13:09:48.238Z,101264.17
2018-05-03T13:12:14.225Z,101262.86
2018-05-03T13:14:40.246Z,101254.81
2018-05-03T13:17:06.472Z,101263.86
2018-05-03T13:19:32.459Z,101271.58
2018-05-03T13:21:58.489Z,101263.57
2018-05-03T13:24:24.536Z,101267.03
2018-05-03T13:26:50.540Z,101260.02
2018-05-03T13:31:50.087Z,101261.52
2018-05-03T13:34:16.178Z,101240.14
2018-05-03T13:36:42.431Z,101259.05
2018-05-03T13:39:08.442Z,101260.16
2018-05-03T13:41:34.857Z,101259.83
2018-05-03T13:44:00.824Z,101258.20
2018-05-03T13:46:26.812Z,101260.44
2018-05-03T13:48:53.036Z,101258.78
2018-05-03T13:51:19.044Z,101253.78
2018-05-03T13:53:45.042Z,101252.67
2018-05-03T13:56:11.046Z,101252.67
2018-05-03T13:58:37.090Z,101260.98
2018-05-03T14:01:03.137Z,101264.59
2018-05-03T14:03:30.153Z,101259.48
2018-05-03T14:05:56.131Z,101257.36
2018-05-03T14:08:23.138Z,101261.13
2018-05-03T14:10:49.113Z,101248.52
2018-05-03T14:13:17.166Z,101246.63
2018-05-03T14:15:44.236Z,101236.22
2018-05-03T14:18:10.249Z,101239.31
2018-05-03T14:20:37.303Z,101246.07
2018-05-03T14:23:03.353Z,101237.47
2018-05-03T14:25:29.343Z,101237.27
2018-05-03T14:27:55.363Z,101240.19
2018-05-03T14:30:21.371Z,101248.56
2018-05-03T14:32:47.617Z,101244.06
2018-05-03T14:35:13.647Z,101246.70
2018-05-03T14:37:39.757Z,101233.78
2018-05-03T14:40:05.804Z,101232.88
2018-05-03T14:42:31.911Z,101232.05
2018-05-03T14:44:57.958Z,101234.61
2018-05-03T14:47:24.010Z,101236.34
2018-05-03T14:49:50.011Z,101238.50
2018-05-03T14:52:16.234Z,101242.73
2018-05-03T14:54:42.216Z,101239.82
2018-05-03T14:57:08.378Z,101251.56
2018-05-03T14:59:34.353Z,101252.52
2018-05-03T15:02:00.313Z,101256.06
2018-05-03T15:04:26.273Z,101240.64
2018-05-03T15:06:52.234Z,101235.31
2018-05-03T15:09:18.225Z,101240.84
2018-05-03T15:11:46.233Z,101247.72
2018-05-03T15:19:17.210Z,101252.86
2018-05-03T15:21:43.233Z,101247.64
2018-05-03T15:24:09.224Z,101253.20
2018-05-03T15:26:36.230Z,101250.94
2018-05-03T15:29:02.209Z,101251.20
2018-05-03T15:33:59.978Z,101260.33
2018-05-03T15:36:25.941Z,101260.45
2018-05-03T15:38:51.995Z,101264.27
2018-05-03T15:41:18.518Z,101257.81
2018-05-03T15:43:44.489Z,101262.63
2018-05-03T15:46:10.446Z,101263.65
2018-05-03T15:48:36.407Z,101265.38
2018-05-03T15:51:02.414Z,101264.59
2018-05-03T15:53:28.401Z,101262.42
2018-05-03T15:55:54.609Z,101265.48
2018-05-03T15:58:20.624Z,101272.00
2018-05-03T16:13:27.132Z,101278.08
2018-05-03T16:15:53.143Z,101269.22
2018-05-03T16:18:19.121Z,101283.99
2018-05-03T16:20:45.162Z,101286.08
2018-05-03T16:23:11.183Z,101278.28
2018-05-03T16:28:14.345Z,101275.88
2018-05-03T16:30:40.380Z,101276.02
2018-05-03T16:33:06.590Z,101271.66
2018-05-03T16:35:33.404Z,101276.27
2018-05-03T16:37:59.414Z,101285.79
2018-05-03T16:40:25.591Z,101282.20
2018-05-03T16:42:51.584Z,101279.55
2018-05-03T16:45:17.543Z,101278.19
2018-05-03T16:47:43.770Z,101286.62
2018-05-03T16:50:09.725Z,101289.10
2018-05-03T16:52:35.703Z,101293.28
2018-05-03T16:57:35.647Z,101286.27
2018-05-03T17:00:01.639Z,101296.69
2018-05-03T17:02:27.682Z,101299.09
2018-05-03T17:04:53.718Z,101301.36
2018-05-03T17:07:19.681Z,101304.07
2018-05-03T17:09:46.726Z,101300.02
2018-05-03T17:12:12.759Z,101302.11
2018-05-03T17:14:38.810Z,101296.72
2018-05-03T17:17:04.821Z,101298.23
2018-05-03T17:19:30.832Z,101303.16
2018-05-03T17:21:56.821Z,101305.25
2018-05-03T17:24:22.825Z,101310.19
2018-05-03T17:26:48.827Z,101316.45
2018-05-03T17:29:14.833Z,101317.20
2018-05-03T17:31:40.865Z,101311.16
2018-05-03T17:34:06.875Z,101311.72
2018-05-03T17:36:32.919Z,101317.61
2018-05-03T17:38:58.968Z,101319.64
2018-05-03T17:41:24.995Z,101322.36
2018-05-03T17:43:51.200Z,101322.30
2018-05-03T17:46:17.290Z,101322.30
2018-05-03T17:48:43.256Z,101320.66
2018-05-03T17:51:09.397Z,101322.30
2018-05-03T17:53:35.310Z,101326.26
2018-05-03T17:56:01.306Z,101327.15
2018-05-03T18:00:58.983Z,101335.10
2018-05-03T18:03:24.966Z,101342.72
2018-05-03T18:05:51.002Z,101341.00
2018-05-03T18:13:21.590Z,101359.22
2018-05-03T18:15:47.576Z,101356.20
2018-05-03T18:18:13.614Z,101363.20
2018-05-03T18:25:42.145Z,101368.51
2018-05-03T18:28:08.175Z,101369.84
2018-05-03T18:30:34.145Z,101376.23
2018-05-03T18:33:00.179Z,101381.61
2018-05-03T18:37:59.907Z,101391.47
2018-05-03T18:40:25.925Z,101389.66
2018-05-03T18:42:51.913Z,101397.58
2018-05-03T18:45:17.929Z,101402.67
2018-05-03T18:47:45.943Z,101404.19
2018-05-03T18:50:12.065Z,101405.45
2018-05-03T18:52:37.992Z,101412.59
2018-05-03T18:55:04.005Z,101418.84
2018-05-03T18:57:30.201Z,101421.23
2018-05-03T18:59:56.390Z,101427.95
2018-05-03T19:02:22.389Z,101428.73
2018-05-03T19:04:48.392Z,101434.92
2018-05-03T19:07:14.440Z,101438.91
2018-05-03T19:09:40.457Z,101443.46
2018-05-03T19:12:06.466Z,101442.75
2018-05-03T19:14:32.463Z,101444.70
2018-05-03T19:17:00.532Z,101452.15
2018-05-03T19:19:26.525Z,101446.11
2018-05-03T19:21:52.530Z,101455.38
2018-05-03T19:24:18.552Z,101450.44
2018-05-03T19:26:44.551Z,101456.87
2018-05-03T19:29:10.570Z,101458.60
2018-05-03T19:31:36.798Z,101467.02
2018-05-03T19:34:02.880Z,101465.99
2018-05-03T19:36:28.904Z,101465.14
2018-05-03T19:38:54.959Z,101470.34
2018-05-03T19:41:20.967Z,101467.70
2018-05-03T19:43:46.999Z,101469.11
2018-05-03T19:46:14.041Z,101472.56
2018-05-03T19:48:40.036Z,101479.12
2018-05-03T19:51:06.030Z,101479.69
2018-05-03T19:53:33.025Z,101485.92
2018-05-03T19:56:04.420Z,101486.00
2018-05-03T20:01:02.903Z,101488.05
2018-05-03T20:03:28.888Z,101492.41
2018-05-03T20:05:55.149Z,101500.16
2018-05-03T20:08:21.750Z,101498.03
2018-05-03T20:10:47.669Z,101498.94
2018-05-03T20:13:13.679Z,101504.63
2018-05-03T20:15:39.667Z,101501.75
2018-05-03T20:18:05.694Z,101506.30
2018-05-03T20:20:31.761Z,101503.38
2018-05-03T20:22:57.780Z,101509.42
2018-05-03T20:25:24.180Z,101502.67
2018-05-03T20:27:50.186Z,101512.35
2018-05-03T20:30:16.202Z,101509.22
2018-05-03T20:32:42.299Z,101513.15
2018-05-03T20:35:08.346Z,101504.73
2018-05-03T20:37:34.385Z,101507.90
2018-05-03T20:40:00.510Z,101510.87
2018-05-03T20:42:26.533Z,101510.05
2018-05-03T20:44:53.461Z,101512.75
2018-05-03T20:47:20.151Z,101512.30
2018-05-03T20:49:46.218Z,101515.52
2018-05-03T20:52:12.554Z,101513.91
2018-05-03T20:54:38.897Z,101507.26
2018-05-03T20:57:04.882Z,101511.11
2018-05-03T20:59:31.106Z,101510.92
2018-05-03T21:01:57.152Z,101503.34
2018-05-03T21:04:23.188Z,101508.84
2018-05-03T21:06:49.261Z,101508.21
2018-05-03T21:09:15.264Z,101514.81
2018-05-03T21:14:14.666Z,101514.48
2018-05-03T21:16:40.742Z,101524.86
2018-05-03T21:19:06.760Z,101521.77
2018-05-03T21:21:35.839Z,101525.72
2018-05-03T21:24:04.033Z,101527.31
2018-05-03T21:26:30.137Z,101526.50
2018-05-03T21:28:58.465Z,101520.60
2018-05-03T21:31:24.485Z,101523.42
2018-05-03T21:33:50.607Z,101524.94
2018-05-03T21:36:17.852Z,101521.59
2018-05-03T21:38:43.905Z,101527.92
2018-05-03T21:41:09.920Z,101525.97
2018-05-03T21:43:36.046Z,101531.91
2018-05-03T21:46:02.090Z,101536.92
2018-05-03T21:48:28.134Z,101535.75
2018-05-03T21:50:54.149Z,101533.82
2018-05-03T21:53:20.165Z,101536.73
2018-05-03T21:55:46.399Z,101532.66
2018-05-03T21:58:13.100Z,101531.12
2018-05-03T22:00:39.141Z,101537.97
2018-05-03T22:05:37.778Z,101538.40
2018-05-03T22:08:03.831Z,101539.42
2018-05-03T22:10:29.900Z,101537.48
2018-05-03T22:12:55.996Z,101534.47
2018-05-03T22:15:22.061Z,101543.13
2018-05-03T22:17:48.146Z,101532.03
2018-05-03T22:20:14.351Z,101544.79
2018-05-03T22:22:40.547Z,101542.35
2018-05-03T22:25:11.389Z,101549.60
2018-05-03T22:27:37.580Z,101547.41
2018-05-03T22:30:03.605Z,101552.58
2018-05-03T22:32:29.653Z,101547.80
2018-05-03T22:34:55.732Z,101544.06
2018-05-03T22:37:22.254Z,101541.23
2018-05-03T22:39:48.376Z,101543.49
2018-05-03T22:42:14.398Z,101542.21
2018-05-03T22:44:40.413Z,101540.44
2018-05-03T22:47:06.461Z,101534.17
2018-05-03T22:49:33.303Z,101536.25
2018-05-03T22:51:59.259Z,101537.46
2018-05-03T22:54:25.244Z,101536.93
2018-05-03T22:56:51.290Z,101541.05
2018-05-03T22:59:17.336Z,101541.91
2018-05-03T23:01:43.519Z,101545.64
2018-05-03T23:04:09.546Z,101543.30
2018-05-03T23:06:35.575Z,101545.87
2018-05-03T23:09:01.577Z,101547.87
2018-05-03T23:11:27.607Z,101545.80
2018-05-03T23:19:01.704Z,101542.81
2018-05-03T23:21:27.724Z,101540.74
2018-05-03T23:23:53.737Z,101540.21
2018-05-03T23:26:19.811Z,101541.72
2018-05-03T23:28:45.892Z,101543.56
2018-05-03T23:31:11.894Z,101543.08
2018-05-03T23:33:37.902Z,101538.90
2018-05-03T23:36:03.916Z,101541.98
2018-05-03T23:38:30.130Z,101542.17
2018-05-03T23:40:56.250Z,101541.30
2018-05-03T23:43:22.312Z,101535.42
2018-05-03T23:45:48.320Z,101527.12
2018-05-03T23:48:14.327Z,101531.83
2018-05-03T23:50:40.314Z,101536.52
2018-05-03T23:53:06.343Z,101532.74
2018-05-03T23:55:32.493Z,101532.03
2018-05-03T23:57:58.523Z,101532.37
